Vienna, Austria

7:47 PM CEST on 四月 01, 2015 (GMT +0200)
Schwechat | | Change Station
CLOSE
Current Station
空港
Location: Vienna Schwechat,
高度: 600 ft
最寄りの気象観測所
発令中の注意報: Wind english:Wind english:

高度 600 ft 48.11 °N, 16.57 °E | Updated 27 minutes ago

Mostly Cloudy
だいたい曇
41 °F
体感気温 32 °F
18
風 変数 風 から 西

今日
高い -- | 低 -- °F
--% 降水確率
昨日
高い -- | 低 -- °F
Precip. -- インチ
6:33 AM 7:24 PM
十三夜, 93% visible
気圧 29.92 インチ
視程 6.2 マイル
わずか 1200 ft
やや曇 3500 ft
だいたい曇 14000 ft
体感気温(寒さ) 32 °F
露点温度 30 °F
湿度 65%
降水 0.00 インチ
積雪深 利用不可。
紫外線 0 の内の 12
花粉 利用不可。
空気品質 利用不可。
Flu Activity 利用不可。
METAR LOWW 011720Z 28016KT 9999 FEW012TCU SCT035 BKN140 05/M01 Q1013 R88/29//95 NOSIG

More Conditions Fewer Conditions

気圧 29.92 インチ
視程 6.2 マイル
わずか 1200 ft
やや曇 3500 ft
だいたい曇 14000 ft
体感気温(寒さ) 32 °F
露点温度 30 °F
湿度 65%
降水 0.00 インチ
積雪深 利用不可。
紫外線 0 の内の 12
花粉 利用不可。
空気品質 利用不可。
Flu Activity 利用不可。
METAR LOWW 011720Z 28016KT 9999 FEW012TCU SCT035 BKN140 05/M01 Q1013 R88/29//95 NOSIG

More Conditions Fewer Conditions

10-Day Weather Forecast

Almanac

天文

Apr. 01, 2015 入り
実時間
常用薄明
航海薄明
天文薄明
可視光の長さ
可照時間
Tomorrow will be .
, % of the Moon is Illuminated

今日の極値

Country Highs Country Lows

Community

WunderPhotos

Upload Photos

1,810,018 写真がアップロードされました!

WunderBlogs® & News

Nearby

空気品質

  空気品質 大気質指数 汚染物質
Not available.

積雪深

Station Depth 高度

地震活動

Distance Mag. Time & Date
Minimum magnitude displayed is 2.5.

沿岸の水温

地名 気温

Stations

最寄りの気象観測所

観測所位置 温度 体感気温(寒さ) 露点温度 湿度 Precip. 高度 更新日時 タイプする